Etusivu
METAR-TAF:

METAR-TAF

Lentoasemat :

Jacksonsin kansainvälinen lentoasema

Port Moresby, Papua-Uusi-Guinea

Leveyspiiri: 09-26S, Pituuspiiri: 147-13E, korkeus merenpinnasta: 38 m

Tämänhetkinen sää

Tämä raportti tehtiin 2 tuntia ja 44 minuuttia sitten, kello 20.00 UTC
Tuuli 5 kn idästä/kaakosta
Lämpötila 26°C
Kosteus 89%
Ilmanpaine 1009 hPa
Näkyvyys 10 km tai enemmän
Hajonneita pilviä 5000 ft:n korkeudessa

METAR: AYPY 252000Z 12005KT 9999 BKN050 26/24 Q1009

Aika: 08:44 (22:44 UTC)

Sääennuste

Tämä raportti tehtiin 6 tuntia ja 54 minuuttia sitten, kello 15.50 UTC
Ennuste voimassa 25. päivästä klo 18 UTC - 26. päivään klo 18 UTC
Tuuli 6 kn etelästä
Näkyvyys 10 km tai enemmän
Hajonneita pilviä 4000 ft:n korkeudessa
From 26. päivästä klo 0001 UTC
Tuuli 10 kn etelästä/kaakosta
Näkyvyys 10 km tai enemmän
Muutamia pilviä 1800 ft:n korkeudessa
Hajanaisia pilviä 14000 ft:n korkeudessa

TAF: AYPY 251550Z 2518/2618 18006KT 9999 BKN040 FM260001 16010KT 9999 FEW018 SCT140

Säähavainnot ja -ennusteet yli 4000 lentoasemalta (METAR- ja TAF-raportit).

Käytössä olevat sääasemat on merkitty karttaan keltaisilla ja punaisilla pisteillä.

Aseta hiiri pisteen päälle nähdäksesi sääaseman nimen.

Klikkaa sitten nähdäksesi säähavainnot ja -ennusteet.

Kartan vaihtaminen: klikkaa mustalla rastilla varustettuja vihreitä pisteitä, niin voit zoomata sisään; viivalla varustettua vihreää pistettä, niin voit zoomata ulos tai vihreitä nuolia, niin pääset viereisille kartoille.


METAR-TAF: